Grinnell, IA (50112)

12:51 AM CST on January 19, 2017 (GMT -0600)
Grinnell Weather.com | | Change Station
Active Advisory: Dense Fog Advisory

Elev 1014 ft 41.75 °N, 92.70 °W | Updated 9 seconds ago

Fog
Fog
32.4 °F
Feels Like 28 °F
N
4.9
Wind Variable Wind from SSW
Gusts 6.9 mph

Today
High -- | Low -- °F
--% Chance of Precip.
Yesterday
High -- | Low -- °F
Precip. -- in
Pressure 29.95 in
Visibility 0.2 miles
Clouds Overcast 200 ft
Windchill 28 °F
Dew Point 32 °F
Humidity 99%
Rainfall 0.00 in
Snow Depth Not available.
7:33 AM 5:10 PM
Waning Gibbous, 56% visible
METAR KGGI 190655Z AUTO 19008KT 1/4SM FG OVC002 00/00 A2995 RMK AO2 T00030000
Pressure 29.95 in
Visibility 0.2 miles
Clouds Overcast 200 ft
Windchill 28 °F
Dew Point 32 °F
Humidity 99%
Rainfall 0.00 in
Snow Depth Not available.
7:33 AM 5:10 PM
Waning Gibbous, 56% visible
METAR KGGI 190655Z AUTO 19008KT 1/4SM FG OVC002 00/00 A2995 RMK AO2 T00030000

Get Your Daily Forecast Email!

Thanks for signing up!

Be on the lookout for a verification email in your inbox.

You'll start receiving the daily forecast at 8 AM.

×

10-Day Weather Forecast

Almanac

Astronomy

Jan. 19, 2017 Rise Set
Actual Time
Civil Twilight
Nautical Twilight
Astronomical Twilight
Moon
Length of Visible Light
Length of Day
Tomorrow will be .
, % of the Moon is Illuminated

Today's Extremes

State Highs State Lows

Community

WunderPhotos

Upload Photos

1,962,540 photos uploaded!

WunderBlog® & News

Nearby

Air Quality

  Air Quality AQ Index Pollutant
Not available.

Snow Depth

Station Depth Elevation

Earthquake Activity

City Distance Mag. Time & Date
Minimum magnitude displayed is 2.5.

Coastal Water Temperatures

Place Temperature

Stations

Nearby Weather Stations

Station Location Temp. Windchill Dew Point Humidity Wind Precip. Elev Updated Type
                   

Watches & Warnings

Dense Fog Advisory
Issued: 9:28 PM CST Jan. 18, 2017 – National Weather Service

... Dense fog advisory in effect until 9 am CST Thursday...

The National Weather Service in Des Moines has issued a dense fog
advisory, which is in effect until 9 am CST Thursday.

* Visibility... around a quarter mile or less... to near zero at
times.

* Impacts... driving will be hazardous due to low and changing
visibilities. Allow extra travel time and please take
appropriate precautions while driving.

Precautionary/preparedness actions...

A dense fog advisory means visibilities will frequently be
reduced to less than one quarter mile. If driving, slow down, use
your headlights, and leave plenty of distance ahead of you.



Lee